Time;durP1;ratioP1;P1;durP2;ratioP2;P2;SDS_P1;SDS_P2;PMS_P1;PMS_P2;Temp;Humidity;BMP_temperature;BMP_pressure;BME280_temperature;BME280_humidity;BME280_pressure;Samples;Min_cycle;Max_cycle;Signal;HPM_P1;HPM_P2
2024/03/25 00:01:25;;;;;;;8.20;2.78;;;;;;;11.15;49.74;100027.06;5104763;28;20062;-80
2024/03/25 00:04:19;;;;;;;4.25;2.30;;;;;;;11.23;49.14;100027.28;5122952;28;20046;-81
2024/03/25 00:07:13;;;;;;;8.35;2.53;;;;;;;11.21;49.19;100018.69;5106028;28;20055;-80
2024/03/25 00:10:09;;;;;;;5.53;2.50;;;;;;;11.20;49.11;100017.88;5104521;28;20051;-80
2024/03/25 00:13:01;;;;;;;4.00;2.65;;;;;;;11.19;49.40;100021.75;5095356;28;20420;-80
2024/03/25 00:15:55;;;;;;;3.22;2.50;;;;;;;11.03;49.72;100023.50;5100284;28;20042;-80
2024/03/25 00:18:48;;;;;;;3.93;1.80;;;;;;;11.13;49.65;100023.88;5104683;28;20050;-80
2024/03/25 00:21:42;;;;;;;3.22;2.15;;;;;;;11.20;48.91;100023.34;5104525;28;20059;-81
2024/03/25 00:24:37;;;;;;;7.13;2.33;;;;;;;11.07;49.08;100013.56;5104863;28;20050;-79
2024/03/25 00:27:32;;;;;;;5.00;3.10;;;;;;;11.06;48.10;100022.84;5104456;28;20058;-80
2024/03/25 00:30:26;;;;;;;4.75;2.78;;;;;;;11.15;48.51;100016.19;5119184;28;20043;-79
2024/03/25 00:33:20;;;;;;;1.92;1.33;;;;;;;11.19;48.63;100018.22;5099441;28;20043;-80
2024/03/25 00:36:15;;;;;;;4.40;1.73;;;;;;;11.15;48.22;100008.00;5099613;28;20046;-79
2024/03/25 00:39:08;;;;;;;4.47;1.80;;;;;;;11.20;47.86;100012.44;5119613;28;20043;-80
2024/03/25 00:42:03;;;;;;;3.10;1.90;;;;;;;11.17;47.09;100015.84;5104261;28;20039;-79
2024/03/25 00:44:57;;;;;;;1.80;1.13;;;;;;;11.08;47.19;100012.41;5096920;28;20515;-79
2024/03/25 00:47:55;;;;;;;2.50;1.55;;;;;;;11.01;47.57;100021.13;5120407;28;20296;-79
2024/03/25 00:50:49;;;;;;;3.33;1.77;;;;;;;11.15;47.57;100015.38;5102242;28;20043;-79
2024/03/25 00:53:44;;;;;;;2.80;1.40;;;;;;;11.08;47.24;100023.28;5107148;28;20051;-78
2024/03/25 00:56:36;;;;;;;2.07;1.40;;;;;;;11.11;47.01;100020.72;5117756;28;20522;-79
2024/03/25 00:59:28;;;;;;;6.15;3.47;;;;;;;11.02;47.16;100013.75;5108238;28;20042;-80
2024/03/25 01:02:23;;;;;;;3.67;1.45;;;;;;;11.09;46.64;100022.97;5108498;28;20043;-79
2024/03/25 01:05:17;;;;;;;2.83;1.50;;;;;;;11.10;46.45;100010.94;5106125;28;20047;-80
2024/03/25 01:08:10;;;;;;;1.90;1.40;;;;;;;11.12;47.16;100018.78;5108218;28;20046;-79
2024/03/25 01:11:10;;;;;;;3.42;1.17;;;;;;;11.23;47.20;100019.94;5108538;28;20047;-79
2024/03/25 01:14:05;;;;;;;6.93;1.23;;;;;;;11.26;46.45;100011.09;5107800;28;20408;-79
2024/03/25 01:16:57;;;;;;;3.97;0.88;;;;;;;11.17;46.83;100007.69;5108237;28;20511;-80
2024/03/25 01:19:54;;;;;;;3.47;2.05;;;;;;;11.03;46.15;100007.16;5122469;28;20523;-81
2024/03/25 01:22:48;;;;;;;5.78;1.58;;;;;;;11.00;46.46;100003.22;5119868;28;20043;-79
2024/03/25 01:25:40;;;;;;;3.17;1.50;;;;;;;10.91;46.52;100005.22;5104630;28;20046;-79
2024/03/25 01:28:35;;;;;;;3.60;2.00;;;;;;;10.89;47.85;100001.22;5122739;28;20038;-79
2024/03/25 01:31:27;;;;;;;3.58;1.70;;;;;;;11.02;46.87;100003.66;5107608;28;20575;-80
2024/03/25 01:34:25;;;;;;;3.35;1.38;;;;;;;11.05;46.98;100000.28;5100894;28;20523;-80
2024/03/25 01:37:19;;;;;;;2.55;1.30;;;;;;;11.00;46.40;99996.97;5104152;28;20046;-79
2024/03/25 01:40:14;;;;;;;1.75;1.00;;;;;;;10.86;46.34;99996.47;5121931;28;20051;-79
2024/03/25 01:43:09;;;;;;;3.15;1.33;;;;;;;10.82;45.98;99990.13;5105639;28;20047;-79
2024/03/25 01:46:03;;;;;;;4.10;1.30;;;;;;;10.79;45.92;99997.00;5117786;28;20054;-80
2024/03/25 01:48:54;;;;;;;1.88;0.90;;;;;;;10.67;46.22;99988.78;5122516;28;20269;-80
2024/03/25 01:51:49;;;;;;;3.22;1.05;;;;;;;10.63;46.84;99998.75;5102713;28;20038;-80
2024/03/25 01:54:44;;;;;;;2.90;0.90;;;;;;;10.77;46.39;99987.59;5106826;28;20047;-80
2024/03/25 01:57:34;;;;;;;;;;;;;;;10.88;45.72;100000.44;5122444;28;20066;-79
2024/03/25 02:00:26;;;;;;;6.55;1.27;;;;;;;10.86;45.68;100002.72;5102708;28;19924;-80
2024/03/25 02:03:21;;;;;;;2.30;1.10;;;;;;;10.71;46.16;99995.16;5092342;28;20051;-79
2024/03/25 02:06:17;;;;;;;2.75;1.05;;;;;;;10.84;46.39;100007.69;5101954;28;20046;-79
2024/03/25 02:09:16;;;;;;;1.67;0.98;;;;;;;10.87;45.66;99998.06;5107348;28;20050;-79
2024/03/25 02:12:08;;;;;;;;;;;;;;;10.86;45.30;100000.00;5107116;28;20405;-79
2024/03/25 02:14:55;;;;;;;2.50;1.08;;;;;;;10.81;45.97;100000.19;5105164;28;19912;-79
2024/03/25 02:17:47;;;;;;;1.63;1.00;;;;;;;10.63;45.82;99998.75;5107183;28;20106;-80
2024/03/25 02:20:42;;;;;;;4.55;1.30;;;;;;;10.73;45.77;99996.41;5106398;28;20129;-80
2024/03/25 02:23:41;;;;;;;1.35;1.15;;;;;;;10.82;45.61;99995.56;5106805;28;20042;-79
2024/03/25 02:26:36;;;;;;;1.88;0.98;;;;;;;10.77;45.25;99996.53;5100635;28;20047;-79
2024/03/25 02:29:34;;;;;;;1.63;1.20;;;;;;;10.84;45.14;99999.53;5106061;28;20039;-79
2024/03/25 02:32:29;;;;;;;1.77;1.05;;;;;;;10.70;44.98;99999.81;5115519;28;20055;-79
2024/03/25 02:35:20;;;;;;;2.38;0.80;;;;;;;10.61;45.17;99990.94;5118828;28;20038;-78
2024/03/25 02:38:15;;;;;;;2.13;1.08;;;;;;;10.72;44.96;99994.00;5101609;28;20046;-81
2024/03/25 02:41:05;;;;;;;1.50;0.83;;;;;;;10.53;44.89;99994.50;5113808;28;20519;-80
2024/03/25 02:43:59;;;;;;;1.80;1.00;;;;;;;10.35;45.64;99986.81;5106248;28;20046;-81
2024/03/25 02:46:52;;;;;;;1.58;1.05;;;;;;;10.39;46.53;99990.47;5099953;28;20546;-81
2024/03/25 02:49:49;;;;;;;3.33;1.13;;;;;;;10.26;46.72;99984.94;5105444;28;20058;-81
2024/03/25 02:52:44;;;;;;;2.22;1.35;;;;;;;10.15;47.29;99996.53;5114259;28;20054;-81
2024/03/25 02:55:39;;;;;;;1.38;1.02;;;;;;;10.14;47.41;99994.94;5102710;28;20050;-79
2024/03/25 02:58:33;;;;;;;3.07;1.30;;;;;;;10.40;47.71;99984.72;5105832;28;20523;-79
2024/03/25 03:01:28;;;;;;;1.35;1.08;;;;;;;10.28;47.74;99979.19;5120710;28;20272;-80
2024/03/25 03:04:22;;;;;;;6.60;2.30;;;;;;;10.32;47.86;99987.47;5120636;28;20046;-78
2024/03/25 03:07:17;;;;;;;4.80;1.43;;;;;;;10.40;47.94;99989.34;5105791;28;20046;-79
2024/03/25 03:10:11;;;;;;;1.80;0.87;;;;;;;10.47;47.12;99993.09;5120013;28;20038;-79
2024/03/25 03:13:06;;;;;;;4.03;1.50;;;;;;;10.57;46.55;99991.91;5117494;28;20063;-79
2024/03/25 03:16:00;;;;;;;3.33;1.17;;;;;;;10.27;46.46;99981.13;5115991;28;20055;-80
2024/03/25 03:18:55;;;;;;;1.75;1.02;;;;;;;10.48;45.82;99993.91;5120229;28;20086;-79
2024/03/25 03:21:49;;;;;;;0.80;0.47;;;;;;;10.44;45.61;99990.28;5120214;28;20046;-79
2024/03/25 03:24:41;;;;;;;2.07;1.27;;;;;;;10.40;45.79;99998.31;5099050;28;20054;-79
2024/03/25 03:27:33;;;;;;;2.58;0.88;;;;;;;10.39;44.93;99998.63;5105035;28;20047;-79
2024/03/25 03:30:28;;;;;;;4.10;1.55;;;;;;;10.48;43.91;99991.19;5105458;28;20400;-79
2024/03/25 03:33:20;;;;;;;2.50;1.13;;;;;;;10.56;42.68;99987.63;5120095;28;20043;-79
2024/03/25 03:36:15;;;;;;;0.98;0.75;;;;;;;10.62;43.15;99987.06;5115101;28;20039;-79
2024/03/25 03:39:09;;;;;;;0.87;0.67;;;;;;;10.23;43.87;99982.91;5098727;28;20050;-79
2024/03/25 03:42:04;;;;;;;1.90;1.00;;;;;;;9.78;44.84;99979.97;5105117;28;20440;-79
2024/03/25 03:44:56;;;;;;;1.95;0.95;;;;;;;9.91;45.15;99991.69;5118971;28;20626;-79
2024/03/25 03:47:50;;;;;;;2.03;1.10;;;;;;;9.97;44.70;99987.69;5104871;28;20046;-80
2024/03/25 03:50:46;;;;;;;5.20;1.02;;;;;;;10.13;44.65;99991.41;5103361;28;20034;-80
2024/03/25 03:53:38;;;;;;;1.70;0.90;;;;;;;9.98;44.40;99996.63;5106269;28;20110;-79
2024/03/25 03:56:30;;;;;;;1.65;0.80;;;;;;;9.87;44.67;99988.84;5084746;28;20050;-79
2024/03/25 03:59:22;;;;;;;2.28;0.93;;;;;;;9.86;44.78;99994.59;5095020;28;20051;-79
2024/03/25 04:02:17;;;;;;;1.80;0.87;;;;;;;10.00;44.27;99992.47;5092701;28;20047;-79
2024/03/25 04:05:09;;;;;;;1.20;1.10;;;;;;;10.19;44.00;99997.50;5095148;28;20272;-79
2024/03/25 04:08:09;;;;;;;1.60;0.70;;;;;;;10.07;44.42;99991.94;5098412;28;20127;-79
2024/03/25 04:11:05;;;;;;;3.92;1.05;;;;;;;9.97;44.57;99987.69;5099079;28;20400;-79
2024/03/25 04:14:00;;;;;;;2.17;0.70;;;;;;;10.04;43.70;100003.47;5098092;28;20038;-80
2024/03/25 04:16:55;;;;;;;2.77;0.77;;;;;;;9.96;43.60;99991.50;5092604;28;20047;-79
2024/03/25 04:19:47;;;;;;;3.00;0.87;;;;;;;10.01;43.24;99999.47;5097846;28;20047;-79
2024/03/25 04:22:42;;;;;;;1.40;0.63;;;;;;;10.02;43.12;99992.91;5113861;28;20777;-79
2024/03/25 04:25:37;;;;;;;1.17;1.00;;;;;;;9.83;43.10;99993.34;5094963;28;20059;-79
2024/03/25 04:28:32;;;;;;;1.77;0.73;;;;;;;9.73;42.89;99987.50;5098258;28;20432;-79
2024/03/25 04:31:27;;;;;;;1.70;0.80;;;;;;;9.75;42.94;99991.47;5098811;28;20043;-79
2024/03/25 04:34:20;;;;;;;1.30;0.70;;;;;;;9.73;43.50;99985.59;5098105;28;20157;-82
2024/03/25 04:37:12;;;;;;;3.60;1.33;;;;;;;9.64;43.51;99989.47;5097717;28;20269;-79
2024/03/25 04:40:07;;;;;;;1.15;0.55;;;;;;;9.59;42.76;99981.50;5096730;28;20047;-78
2024/03/25 04:43:00;;;;;;;;;;;;;;;9.41;43.59;99986.19;5098210;28;20408;-81
2024/03/25 04:45:54;;;;;;;2.42;0.50;;;;;;;9.44;42.77;99978.22;5092927;28;20391;-79
2024/03/25 04:48:49;;;;;;;1.85;0.80;;;;;;;9.39;42.62;99978.41;5098977;28;20047;-79
2024/03/25 04:51:41;;;;;;;0.87;0.57;;;;;;;9.53;43.09;99977.38;5092880;28;20043;-81
2024/03/25 04:54:35;;;;;;;1.13;0.50;;;;;;;9.62;41.92;99970.78;5096438;28;20059;-81
2024/03/25 04:57:30;;;;;;;0.68;0.50;;;;;;;9.66;41.70;99979.06;5098965;28;20043;-79
2024/03/25 05:00:24;;;;;;;5.53;0.98;;;;;;;9.56;40.46;99974.78;5097550;28;20051;-78
2024/03/25 05:03:19;;;;;;;1.35;1.20;;;;;;;9.39;40.50;99972.97;5097841;28;20123;-79
2024/03/25 05:06:09;;;;;;;1.33;0.45;;;;;;;9.52;40.59;99982.00;5093193;28;20039;-79
2024/03/25 05:09:03;;;;;;;0.90;0.55;;;;;;;9.59;41.36;99986.94;5098523;28;20043;-80
2024/03/25 05:11:55;;;;;;;6.17;0.73;;;;;;;9.61;41.08;99984.66;5097441;28;20047;-79
2024/03/25 05:14:50;;;;;;;3.72;0.75;;;;;;;9.75;41.14;99986.03;5097697;28;20102;-80
2024/03/25 05:17:44;;;;;;;5.10;2.57;;;;;;;9.68;41.57;99985.78;5078275;28;20421;-79
2024/03/25 05:20:37;;;;;;;3.45;1.73;;;;;;;9.47;40.49;99984.91;5081187;28;20527;-78
2024/03/25 05:23:31;;;;;;;1.38;1.00;;;;;;;9.26;40.93;99984.81;5091920;28;20047;-79
2024/03/25 05:26:26;;;;;;;3.93;1.33;;;;;;;9.25;40.50;99985.13;5097855;28;20534;-78
2024/03/25 05:29:20;;;;;;;2.63;0.90;;;;;;;9.41;41.36;99987.00;5099176;28;20043;-77
2024/03/25 05:32:15;;;;;;;7.85;1.10;;;;;;;9.59;40.72;99986.94;5113132;28;20086;-80
2024/03/25 05:35:09;;;;;;;6.27;0.80;;;;;;;9.48;40.03;99991.13;5097417;28;20051;-81
2024/03/25 05:37:59;;;;;;;1.77;0.70;;;;;;;9.52;39.67;99986.63;5097574;28;20055;-78
2024/03/25 05:40:54;;;;;;;2.97;0.77;;;;;;;9.63;39.58;99987.88;5099150;28;20047;-78
2024/03/25 05:43:48;;;;;;;2.33;0.63;;;;;;;9.87;41.38;99979.91;5098528;28;20051;-81
2024/03/25 05:46:41;;;;;;;7.73;0.90;;;;;;;9.47;40.52;99986.81;5095524;28;20076;-82
2024/03/25 05:49:36;;;;;;;1.58;1.13;;;;;;;9.21;40.85;99982.28;5103699;28;20050;-81
2024/03/25 05:52:32;;;;;;;7.07;1.52;;;;;;;9.27;41.06;99991.84;5094792;28;20528;-81
2024/03/25 05:55:27;;;;;;;4.53;0.80;;;;;;;9.64;39.98;99997.59;5098418;28;20051;-81
2024/03/25 05:58:14;;;;;;;8.82;1.02;;;;;;;9.61;38.58;100009.91;5101342;28;20047;-81
2024/03/25 06:01:09;;;;;;;3.17;1.70;;;;;;;9.85;38.78;100012.03;5094610;28;20051;-80
2024/03/25 06:04:04;;;;;;;5.60;1.20;;;;;;;10.12;38.11;100018.91;5102123;28;20047;-80
2024/03/25 06:06:59;;;;;;;1.92;0.70;;;;;;;10.35;37.71;100022.97;5095148;28;20055;-81
2024/03/25 06:09:54;;;;;;;3.42;0.85;;;;;;;10.32;38.04;100041.81;5100666;28;20043;-80
2024/03/25 06:12:49;;;;;;;4.25;1.35;;;;;;;10.30;39.19;100050.31;5102262;28;20062;-81
2024/03/25 06:15:43;;;;;;;2.15;1.40;;;;;;;10.27;39.31;100064.56;5098645;28;20059;-82
2024/03/25 06:18:38;;;;;;;2.07;1.50;;;;;;;9.41;40.32;100046.69;5100675;28;20043;-82
2024/03/25 06:21:30;;;;;;;2.20;2.00;;;;;;;7.49;44.71;100041.69;5078256;28;20043;-80
2024/03/25 06:24:25;;;;;;;4.30;1.13;;;;;;;7.31;46.64;100043.47;5086441;28;20047;-80
2024/03/25 06:27:19;;;;;;;1.63;0.75;;;;;;;7.27;47.00;100045.22;5097300;28;20055;-82
2024/03/25 06:36:32;;;;;;;4.93;1.80;;;;;;;7.33;47.11;100064.81;5095487;28;20051;-81
2024/03/25 06:39:26;;;;;;;4.68;1.00;;;;;;;7.23;47.43;100065.06;5086556;28;20527;-82
2024/03/25 06:42:21;;;;;;;1.20;0.63;;;;;;;7.32;47.62;100063.22;5099590;28;20566;-82
2024/03/25 06:45:13;;;;;;;1.88;1.35;;;;;;;7.28;47.56;100070.34;5098155;28;20071;-81
2024/03/25 06:48:06;;;;;;;6.50;1.90;;;;;;;7.28;48.49;100067.66;5100235;28;20043;-82
2024/03/25 06:51:01;;;;;;;2.22;1.05;;;;;;;7.74;48.69;100072.66;5098046;28;20059;-82
2024/03/25 06:53:57;;;;;;;6.03;1.38;;;;;;;8.41;46.51;100067.81;5100216;28;20523;-82
2024/03/25 06:56:54;;;;;;;5.65;0.80;;;;;;;8.88;45.20;100081.56;5091757;28;20524;-83
2024/03/25 06:59:49;;;;;;;2.63;1.08;;;;;;;9.08;46.66;100083.63;5095855;28;20067;-83
2024/03/25 07:02:44;;;;;;;4.40;2.20;;;;;;;9.38;47.10;100087.25;5094092;28;20055;-83
2024/03/25 07:05:38;;;;;;;4.65;1.85;;;;;;;9.56;45.33;100079.84;5092603;28;20273;-83
2024/03/25 07:08:33;;;;;;;6.77;1.37;;;;;;;9.64;44.58;100089.91;5094995;28;20053;-83
2024/03/25 07:11:27;;;;;;;7.68;1.95;;;;;;;9.70;45.60;100091.31;5092407;28;20043;-83
2024/03/25 07:14:22;;;;;;;6.28;1.27;;;;;;;9.80;45.17;100093.69;5096162;28;20039;-83
2024/03/25 07:17:17;;;;;;;6.10;2.50;;;;;;;9.86;44.48;100089.66;5093626;28;20059;-82
2024/03/25 07:20:13;;;;;;;6.23;2.40;;;;;;;9.91;43.50;100108.47;5097677;28;20051;-83
2024/03/25 07:23:05;;;;;;;10.48;3.13;;;;;;;9.96;42.99;100108.28;5095118;28;20401;-82
2024/03/25 07:25:59;;;;;;;6.85;2.83;;;;;;;9.99;43.65;100107.66;5092267;28;20051;-83
2024/03/25 07:28:54;;;;;;;7.15;2.60;;;;;;;10.16;43.24;100110.31;5097278;28;20603;-82
2024/03/25 07:31:49;;;;;;;7.93;3.58;;;;;;;10.34;44.74;100107.53;5093469;28;20059;-83
2024/03/25 07:34:43;;;;;;;10.30;4.18;;;;;;;10.35;47.02;100106.41;5091382;28;20051;-83
2024/03/25 07:37:41;;;;;;;13.67;3.57;;;;;;;10.26;46.27;100120.81;5094912;28;20063;-83
2024/03/25 07:40:35;;;;;;;12.07;3.25;;;;;;;10.33;47.14;100119.50;5091944;28;20286;-82
2024/03/25 07:43:30;;;;;;;13.32;4.07;;;;;;;10.43;47.32;100121.84;5087300;28;20040;-84
2024/03/25 07:46:24;;;;;;;4.37;2.37;;;;;;;10.58;47.84;100121.28;5092135;28;20047;-82
2024/03/25 07:49:16;;;;;;;5.73;2.77;;;;;;;10.61;46.94;100120.66;5092106;28;20090;-85
2024/03/25 07:52:09;;;;;;;7.80;3.28;;;;;;;10.77;47.04;100129.78;5092131;28;20051;-82
2024/03/25 07:55:03;;;;;;;7.83;2.93;;;;;;;10.80;46.18;100126.44;5093113;28;20051;-82
2024/03/25 07:57:55;;;;;;;6.40;2.47;;;;;;;10.87;45.66;100134.84;5095592;28;20047;-83
2024/03/25 08:00:50;;;;;;;6.78;3.00;;;;;;;10.96;46.19;100143.75;5094312;28;20288;-82
2024/03/25 08:03:45;;;;;;;5.33;2.27;;;;;;;11.05;45.53;100152.63;5090597;28;20042;-83
2024/03/25 08:06:39;;;;;;;6.18;2.58;;;;;;;11.06;44.82;100146.06;5091219;28;20043;-84
2024/03/25 08:09:34;;;;;;;6.73;2.40;;;;;;;11.16;45.72;100142.16;5093090;28;20114;-83
2024/03/25 08:12:29;;;;;;;8.15;2.50;;;;;;;11.22;44.49;100138.09;5095676;28;20039;-82
2024/03/25 08:15:23;;;;;;;3.63;2.27;;;;;;;11.32;44.12;100143.13;5093246;28;20523;-83
2024/03/25 08:18:15;;;;;;;5.97;2.40;;;;;;;11.39;43.82;100151.53;5091196;28;20288;-82
2024/03/25 08:21:10;;;;;;;6.55;2.15;;;;;;;11.54;43.40;100156.38;5094553;28;20118;-83
2024/03/25 08:24:04;;;;;;;4.25;2.05;;;;;;;11.67;42.52;100168.09;5093530;28;20047;-83
2024/03/25 08:26:59;;;;;;;11.70;1.60;;;;;;;11.81;42.61;100167.84;5090789;28;20043;-83
2024/03/25 08:29:53;;;;;;;8.07;3.33;;;;;;;11.86;42.88;100173.88;5102323;28;20040;-83
2024/03/25 08:32:48;;;;;;;4.28;2.10;;;;;;;11.85;42.55;100175.00;5085861;28;20293;-83
2024/03/25 08:35:38;;;;;;;11.82;2.90;;;;;;;12.07;42.51;100175.72;5098261;28;20043;-83
2024/03/25 08:38:37;;;;;;;7.45;3.15;;;;;;;12.12;42.81;100168.13;5097013;28;20040;-81
2024/03/25 08:41:35;;;;;;;4.45;2.15;;;;;;;12.13;42.54;100169.72;5079485;28;20040;-81
2024/03/25 08:44:27;;;;;;;5.43;1.92;;;;;;;12.19;42.63;100162.13;5079737;28;20055;-82
2024/03/25 08:47:22;;;;;;;2.70;1.73;;;;;;;12.33;42.71;100154.41;5091566;28;20047;-82
2024/03/25 08:50:16;;;;;;;4.30;2.07;;;;;;;12.51;42.45;100158.47;5097616;28;20051;-84
2024/03/25 08:53:09;;;;;;;22.60;2.20;;;;;;;12.68;42.10;100152.81;5079673;28;20278;-83
2024/03/25 08:56:03;;;;;;;4.10;1.92;;;;;;;12.75;41.12;100158.47;5071483;28;20037;-84
2024/03/25 08:58:58;;;;;;;5.43;2.07;;;;;;;12.79;41.54;100159.38;5074092;28;20044;-83
2024/03/25 09:01:50;;;;;;;5.25;1.95;;;;;;;12.79;41.11;100153.13;5072131;28;20119;-82
2024/03/25 09:04:44;;;;;;;53.77;3.30;;;;;;;12.85;41.58;100158.00;5075396;28;20047;-82
2024/03/25 09:07:39;;;;;;;4.72;1.27;;;;;;;12.99;41.74;100148.66;5074410;28;20419;-83
2024/03/25 09:13:45;;;;;;;6.28;1.50;;;;;;;13.18;39.51;100146.13;5075356;28;20048;-83
2024/03/25 09:16:36;;;;;;;4.90;1.37;;;;;;;13.45;38.78;100142.63;5074658;28;20043;-83
2024/03/25 09:19:29;;;;;;;10.10;1.80;;;;;;;13.67;37.37;100154.91;5078469;28;20047;-82
2024/03/25 09:22:23;;;;;;;3.95;1.38;;;;;;;13.74;37.48;100155.09;5075736;28;20100;-82
2024/03/25 09:25:13;;;;;;;5.88;1.67;;;;;;;13.73;37.95;100147.25;5073314;28;20500;-82
2024/03/25 09:28:10;;;;;;;13.10;2.55;;;;;;;13.94;39.46;100148.59;5077508;28;20071;-83
2024/03/25 09:31:05;;;;;;;4.35;1.40;;;;;;;14.07;38.72;100138.38;5075390;28;20044;-83
2024/03/25 09:33:59;;;;;;;7.57;1.90;;;;;;;14.30;39.11;100150.28;5077912;28;20059;-84
2024/03/25 09:36:54;;;;;;;4.10;1.10;;;;;;;14.50;39.35;100141.03;5073401;28;20044;-82
2024/03/25 09:39:49;;;;;;;4.17;1.00;;;;;;;14.70;38.42;100143.81;5074309;28;20047;-82
2024/03/25 09:42:41;;;;;;;28.95;3.83;;;;;;;14.80;38.12;100140.53;5076663;28;20512;-81
2024/03/25 09:45:37;;;;;;;2.78;1.20;;;;;;;14.73;37.79;100143.13;5091719;28;20040;-82
2024/03/25 09:48:34;;;;;;;3.35;1.30;;;;;;;14.89;36.49;100143.84;5100257;28;20055;-84
2024/03/25 09:51:28;;;;;;;3.15;1.10;;;;;;;15.12;35.83;100136.53;5090958;28;20047;-83
2024/03/25 09:54:23;;;;;;;12.15;1.20;;;;;;;15.25;35.63;100135.25;5093712;28;20050;-84
2024/03/25 09:57:16;;;;;;;8.57;1.02;;;;;;;15.44;34.97;100141.88;5096551;28;20039;-84
2024/03/25 10:00:11;;;;;;;2.72;1.10;;;;;;;15.57;34.77;100129.63;5094339;28;20448;-84
2024/03/25 10:03:10;;;;;;;2.97;1.15;;;;;;;15.67;34.23;100132.56;5097212;28;20039;-81
2024/03/25 10:06:04;;;;;;;2.78;1.27;;;;;;;15.92;34.69;100121.25;5094855;28;20047;-81
2024/03/25 10:09:03;;;;;;;6.55;0.75;;;;;;;15.99;33.45;100119.44;5092383;28;20266;-80
2024/03/25 10:11:59;;;;;;;9.20;1.52;;;;;;;16.20;32.69;100119.78;5095631;28;20047;-82
2024/03/25 10:14:53;;;;;;;6.00;1.48;;;;;;;16.14;31.55;100113.03;5094992;28;20046;-83
2024/03/25 10:17:51;;;;;;;3.17;1.30;;;;;;;16.30;32.74;100112.91;5101547;28;20436;-82
2024/03/25 10:20:52;;;;;;;3.05;0.85;;;;;;;16.34;30.64;100113.75;5101029;28;20067;-83
2024/03/25 10:23:48;;;;;;;1.67;1.00;;;;;;;16.47;29.29;100095.09;5097884;28;20051;-85
2024/03/25 10:26:45;;;;;;;3.78;1.35;;;;;;;16.63;30.35;100095.75;5091857;28;20111;-84
2024/03/25 10:29:37;;;;;;;2.35;1.00;;;;;;;16.76;30.09;100097.13;5091550;28;20047;-87
2024/03/25 10:32:29;;;;;;;5.80;1.63;;;;;;;16.89;32.68;100095.75;5075905;28;20410;-82
2024/03/25 10:35:24;;;;;;;7.85;1.67;;;;;;;17.00;29.17;100095.88;5116060;27;20042;-84
2024/03/25 10:38:19;;;;;;;3.33;0.70;;;;;;;16.99;27.71;100084.09;5101222;28;20046;-84
2024/03/25 10:41:16;;;;;;;2.00;0.90;;;;;;;16.97;26.90;100077.38;5099961;28;20043;-84
2024/03/25 10:44:09;;;;;;;0.75;0.65;;;;;;;17.18;25.17;100085.09;5095475;28;20107;-83
2024/03/25 10:47:07;;;;;;;1.85;0.75;;;;;;;17.30;24.98;100079.34;5100645;28;20051;-86
2024/03/25 10:50:09;;;;;;;1.52;0.60;;;;;;;17.40;25.62;100076.72;5095950;28;20059;-85
2024/03/25 10:53:05;;;;;;;6.88;0.90;;;;;;;17.48;26.69;100077.56;5098036;28;20659;-83
2024/03/25 10:56:06;;;;;;;5.40;1.08;;;;;;;17.65;28.59;100066.00;5082765;28;20047;-83
2024/03/25 10:59:01;;;;;;;1.10;0.60;;;;;;;17.83;27.40;100064.19;5105426;28;20109;-84
2024/03/25 11:01:50;;;;;;;3.30;0.80;;;;;;;17.83;24.66;100047.69;5096326;28;20429;-86
2024/03/25 11:04:49;;;;;;;5.90;1.48;;;;;;;17.92;25.59;100050.13;5093828;28;20055;-85
2024/03/25 11:07:41;;;;;;;2.13;0.90;;;;;;;18.04;24.92;100044.31;5097433;28;20094;-84
2024/03/25 11:10:36;;;;;;;4.20;1.27;;;;;;;18.05;26.08;100045.91;5093536;28;20051;-84
2024/03/25 11:13:29;;;;;;;3.53;1.27;;;;;;;18.03;27.01;100047.47;5082976;28;20051;-85
2024/03/25 11:16:36;;;;;;;1.83;1.13;;;;;;;18.09;27.72;100045.94;5092654;28;20413;-84
2024/03/25 11:19:33;;;;;;;4.22;0.80;;;;;;;18.21;26.99;100040.91;5097859;28;20051;-84
2024/03/25 11:22:28;;;;;;;1.55;1.00;;;;;;;18.08;26.44;100044.38;5096373;28;20047;-84
2024/03/25 11:25:25;;;;;;;1.85;0.70;;;;;;;18.25;25.73;100029.94;5094128;28;20043;-84
2024/03/25 11:28:18;;;;;;;0.73;0.50;;;;;;;18.27;25.66;100024.84;5096396;28;20520;-84
2024/03/25 11:31:10;;;;;;;9.40;0.80;;;;;;;18.51;27.76;100028.91;5097565;28;20111;-84
2024/03/25 11:34:07;;;;;;;1.20;0.88;;;;;;;18.55;26.54;100014.00;5093525;28;20047;-84
2024/03/25 11:36:57;;;;;;;4.15;1.05;;;;;;;18.46;25.90;100013.53;5095117;28;20520;-84
2024/03/25 11:39:51;;;;;;;2.22;0.85;;;;;;;18.62;29.34;100019.56;5094114;28;20067;-83
2024/03/25 11:42:47;;;;;;;3.72;1.10;;;;;;;18.62;27.18;100014.06;5097694;28;20047;-84
2024/03/25 11:45:42;;;;;;;2.45;1.00;;;;;;;18.60;24.72;100016.38;5094190;28;20050;-84
2024/03/25 11:48:36;;;;;;;11.27;0.95;;;;;;;18.78;26.95;100016.47;5091859;28;20047;-84
2024/03/25 11:51:31;;;;;;;7.30;1.20;;;;;;;18.88;29.16;100012.19;5093556;28;20040;-80
2024/03/25 11:54:26;;;;;;;3.90;1.35;;;;;;;18.99;26.67;100010.25;5092937;28;20503;-88
2024/03/25 11:57:20;;;;;;;4.63;0.80;;;;;;;18.93;26.12;100014.56;5091790;28;20527;-84
2024/03/25 12:00:18;;;;;;;2.85;1.13;;;;;;;19.04;26.02;100018.16;5094160;28;20043;-85
2024/03/25 12:03:11;;;;;;;5.30;1.35;;;;;;;19.06;27.61;100015.78;5091830;28;20051;-84
2024/03/25 12:06:07;;;;;;;1.52;1.00;;;;;;;18.93;25.62;100007.09;5092485;28;20439;-83
2024/03/25 12:12:09;;;;;;;5.05;1.58;;;;;;;19.05;27.32;100003.16;5096727;28;20036;-84
2024/03/25 12:15:06;;;;;;;7.70;1.10;;;;;;;18.87;23.46;99991.31;5093369;28;20400;-84
2024/03/25 12:17:58;;;;;;;1.85;0.80;;;;;;;18.93;23.95;99989.78;5090782;28;20102;-85
2024/03/25 12:20:53;;;;;;;2.63;0.70;;;;;;;19.05;22.60;99989.38;5094071;28;20516;-83
2024/03/25 12:23:49;;;;;;;2.85;0.75;;;;;;;19.02;21.75;99981.91;5091805;28;20078;-84
2024/03/25 12:26:44;;;;;;;3.78;0.60;;;;;;;19.13;23.73;99982.75;5090703;28;20055;-83
2024/03/25 12:29:38;;;;;;;1.63;1.33;;;;;;;19.03;23.42;99975.22;5094201;28;20043;-84
2024/03/25 12:32:41;;;;;;;0.85;0.60;;;;;;;19.28;25.47;99976.06;5091790;28;20413;-83
2024/03/25 12:35:40;;;;;;;1.08;0.60;;;;;;;19.32;24.27;99971.34;5094861;28;20051;-85
2024/03/25 12:38:35;;;;;;;0.98;0.60;;;;;;;19.38;26.09;99969.00;5092560;28;20055;-85
2024/03/25 12:41:27;;;;;;;;;;;;;;;19.36;25.83;99969.38;5082696;28;20039;-83
2024/03/25 12:44:22;;;;;;;8.10;0.80;;;;;;;19.42;26.18;99956.78;5098943;28;19920;-85
2024/03/25 12:47:16;;;;;;;5.85;1.42;;;;;;;19.46;27.70;99952.06;5084143;28;20051;-84
2024/03/25 12:50:06;;;;;;;3.45;1.15;;;;;;;19.32;23.93;99956.75;5085050;28;20047;-84
2024/03/25 12:53:01;;;;;;;3.05;1.30;;;;;;;19.31;24.00;99961.50;5110443;28;20043;-84
2024/03/25 12:55:56;;;;;;;2.15;1.48;;;;;;;19.35;24.10;99950.47;5098976;28;20047;-84
2024/03/25 12:58:50;;;;;;;1.40;1.08;;;;;;;19.39;24.34;99948.50;5102765;28;20515;-84
2024/03/25 13:01:42;;;;;;;2.17;1.20;;;;;;;19.30;24.22;99939.84;5102367;28;20047;-84
2024/03/25 13:04:37;;;;;;;2.83;1.10;;;;;;;19.49;25.71;99945.00;5099226;28;20047;-84
2024/03/25 13:07:31;;;;;;;3.70;1.35;;;;;;;19.39;24.28;99943.00;5096888;28;20051;-84
2024/03/25 13:10:21;;;;;;;4.88;1.73;;;;;;;19.38;24.04;99933.16;5101336;28;20051;-85
2024/03/25 13:13:16;;;;;;;2.42;1.30;;;;;;;19.39;24.47;99941.03;5101593;28;20043;-85
2024/03/25 13:16:11;;;;;;;9.10;1.55;;;;;;;19.25;22.89;99934.72;5096786;28;20043;-84
2024/03/25 13:19:05;;;;;;;3.30;1.35;;;;;;;19.43;21.68;99928.03;5101776;28;20055;-85
2024/03/25 13:22:00;;;;;;;1.75;0.90;;;;;;;19.26;20.31;99931.56;5101093;28;20047;-85
2024/03/25 13:24:54;;;;;;;3.08;1.35;;;;;;;19.12;20.25;99926.03;5092728;28;20051;-86
2024/03/25 13:27:49;;;;;;;2.00;0.95;;;;;;;19.32;21.58;99932.75;5096688;28;20066;-85
2024/03/25 13:30:44;;;;;;;6.47;1.35;;;;;;;19.44;24.44;99920.53;5095038;28;20550;-86
2024/03/25 13:33:38;;;;;;;0.45;0.35;;;;;;;19.21;19.36;99907.13;5098992;28;20067;-85
2024/03/25 13:36:33;;;;;;;1.27;0.90;;;;;;;19.28;19.49;99909.91;5094291;28;20043;-86
2024/03/25 13:39:27;;;;;;;4.03;0.80;;;;;;;19.34;24.78;99916.59;5093990;28;20043;-85
2024/03/25 13:42:19;;;;;;;8.20;1.95;;;;;;;19.20;21.19;99905.56;5096322;28;20051;-85
2024/03/25 13:45:14;;;;;;;4.13;0.85;;;;;;;19.32;24.82;99901.63;5094333;28;20047;-84
2024/03/25 13:48:08;;;;;;;1.73;0.63;;;;;;;19.24;23.42;99906.38;5097851;28;20047;-84
2024/03/25 13:51:03;;;;;;;3.60;0.68;;;;;;;19.34;24.29;99902.03;5095032;28;20043;-86